Aviation Digital Data Service (ADDS)

Output produced by METARs form (1519 UTC 20 March 2019)
found at http://www.aviationweather.gov/metar/data/
 
Forecast for: GCTS (TENERIFE SUR/REI, ES)
Text: TAF GCTS 201400Z 2015/2115 09023KT 9999 FEW030 TX22/2015Z TN16/2106Z
Forecast period: 1500 to 1800 UTC 20 March 2019
Forecast type: FROM: standard forecast or significant change
Winds: from the E (90 degrees) at 26 MPH (23 knots; 11.8 m/s)
Visibility: 6 or more miles 10+ km)
Ceiling: at least 12,000 feet AGL
Clouds: few clouds at 3000 feet AGL
Weather: no significant weather forecast for this period
Text: BECMG 2018/2020 05013KT
Forecast period: 1800 UTC 20 March 2019 to 0900 UTC 21 March 2019
Forecast type: BECOMING: Conditions expected to become as follows by 2000 UTC 20 March 2019
Winds: from the NE (50 degrees) at 15 MPH (13 knots; 6.7 m/s)
Visibility: 6 or more miles 10+ km)
Ceiling: at least 12,000 feet AGL
Clouds: few clouds at 3000 feet AGL
Weather: no significant weather forecast for this period
Text: BECMG 2109/2111 09025KT
Forecast period: 0900 to 1500 UTC 21 March 2019
Forecast type: BECOMING: Conditions expected to become as follows by 1100 UTC 21 March 2019
Winds: from the E (90 degrees) at 29 MPH (25 knots; 12.9 m/s)
Visibility: 6 or more miles 10+ km)
Ceiling: at least 12,000 feet AGL
Clouds: few clouds at 3000 feet AGL
Weather: no significant weather forecast for this period